createdAt,value
2019-03-10T00:01:06.678Z,2.70
2019-03-10T00:03:35.371Z,2.70
2019-03-10T00:06:04.124Z,2.43
2019-03-10T00:08:34.006Z,2.23
2019-03-10T00:11:02.700Z,2.50
2019-03-10T00:13:31.411Z,2.50
2019-03-10T00:16:00.172Z,2.63
2019-03-10T00:18:28.830Z,2.53
2019-03-10T00:20:57.555Z,3.33
2019-03-10T00:23:26.458Z,3.13
2019-03-10T00:25:55.111Z,2.10
2019-03-10T00:28:23.851Z,2.33
2019-03-10T00:30:52.561Z,1.80
2019-03-10T00:33:21.193Z,2.40
2019-03-10T00:35:49.921Z,2.20
2019-03-10T00:38:21.969Z,2.20
2019-03-10T00:40:59.477Z,1.60
2019-03-10T00:43:46.053Z,1.80
2019-03-10T00:46:34.539Z,2.07
2019-03-10T00:49:09.255Z,3.30
2019-03-10T00:52:00.587Z,2.07
2019-03-10T00:54:39.535Z,2.30
2019-03-10T00:57:08.242Z,2.13
2019-03-10T00:59:36.963Z,2.40
2019-03-10T01:02:05.647Z,2.60
2019-03-10T01:04:37.369Z,1.77
2019-03-10T01:07:06.193Z,2.50
2019-03-10T01:09:35.403Z,2.27
2019-03-10T01:12:04.308Z,2.23
2019-03-10T01:14:33.973Z,1.97
2019-03-10T01:17:03.869Z,1.70
2019-03-10T01:19:33.158Z,2.20
2019-03-10T01:22:02.252Z,3.10
2019-03-10T01:24:31.265Z,1.83
2019-03-10T01:27:01.451Z,2.00
2019-03-10T01:29:30.158Z,1.97
2019-03-10T01:32:16.868Z,1.50
2019-03-10T01:35:03.675Z,1.80
2019-03-10T01:37:32.310Z,1.93
2019-03-10T01:40:00.958Z,1.93
2019-03-10T01:42:29.588Z,1.93
2019-03-10T01:44:58.333Z,2.20
2019-03-10T01:47:27.046Z,2.00
2019-03-10T01:49:55.865Z,2.77
2019-03-10T01:52:24.569Z,2.40
2019-03-10T01:54:53.349Z,2.20
2019-03-10T01:57:22.199Z,2.63
2019-03-10T01:59:51.010Z,2.17
2019-03-10T02:02:25.529Z,2.23
2019-03-10T02:04:53.065Z,2.17
2019-03-10T02:07:21.742Z,1.93
2019-03-10T02:09:50.432Z,2.00
2019-03-10T02:12:19.073Z,1.97
2019-03-10T02:14:47.828Z,2.23
2019-03-10T02:17:16.546Z,2.30
2019-03-10T02:19:45.246Z,3.03
2019-03-10T02:22:14.914Z,2.17
2019-03-10T02:24:43.554Z,2.93
2019-03-10T02:27:12.644Z,2.93
2019-03-10T02:29:41.389Z,2.13
2019-03-10T02:32:11.389Z,3.00
2019-03-10T02:34:41.089Z,2.50
2019-03-10T02:37:09.705Z,2.10
2019-03-10T02:39:38.347Z,1.93
2019-03-10T02:42:08.200Z,2.57
2019-03-10T02:44:38.404Z,2.70
2019-03-10T02:47:07.101Z,2.03
2019-03-10T02:49:35.818Z,2.13
2019-03-10T02:52:04.560Z,2.70
2019-03-10T02:54:33.259Z,1.93
2019-03-10T02:57:01.953Z,2.37
2019-03-10T02:59:30.564Z,3.20
2019-03-10T03:02:01.899Z,2.80
2019-03-10T03:04:30.458Z,2.17
2019-03-10T03:06:59.206Z,2.50
2019-03-10T03:09:27.897Z,2.17
2019-03-10T03:11:56.491Z,2.30
2019-03-10T03:14:26.614Z,2.57
2019-03-10T03:16:55.243Z,2.80
2019-03-10T03:19:23.935Z,2.73
2019-03-10T03:21:55.364Z,3.00
2019-03-10T03:24:24.113Z,2.93
2019-03-10T03:26:52.665Z,2.93
2019-03-10T03:29:21.542Z,2.93
2019-03-10T03:31:54.426Z,3.30
2019-03-10T03:34:24.589Z,2.87
2019-03-10T03:36:53.574Z,3.17
2019-03-10T03:39:28.291Z,3.10
2019-03-10T03:41:56.920Z,3.50
2019-03-10T03:44:25.691Z,2.93
2019-03-10T03:46:54.319Z,2.70
2019-03-10T03:49:22.953Z,3.40
2019-03-10T03:51:51.978Z,3.43
2019-03-10T03:54:20.546Z,3.23
2019-03-10T03:56:49.245Z,3.30
2019-03-10T03:59:20.164Z,3.23
2019-03-10T04:01:53.224Z,2.57
2019-03-10T04:04:21.864Z,2.80
2019-03-10T04:06:50.504Z,3.17
2019-03-10T04:09:19.134Z,3.37
2019-03-10T04:11:47.804Z,3.80
2019-03-10T04:14:16.513Z,3.53
2019-03-10T04:16:45.077Z,3.50
2019-03-10T04:19:13.747Z,3.23
2019-03-10T04:21:42.384Z,3.10
2019-03-10T04:24:11.036Z,3.53
2019-03-10T04:26:39.774Z,5.33
2019-03-10T04:29:08.343Z,4.23
2019-03-10T04:31:38.448Z,4.00
2019-03-10T04:34:07.487Z,4.70
2019-03-10T04:36:36.194Z,4.00
2019-03-10T04:39:06.508Z,3.07
2019-03-10T04:41:35.161Z,4.83
2019-03-10T04:44:03.878Z,4.37
2019-03-10T04:46:32.473Z,4.47
2019-03-10T04:49:01.089Z,4.10
2019-03-10T04:51:29.729Z,4.57
2019-03-10T04:53:58.355Z,4.30
2019-03-10T04:56:28.663Z,4.87
2019-03-10T04:58:58.973Z,5.00
2019-03-10T05:01:27.700Z,4.00
2019-03-10T05:03:56.380Z,4.73
2019-03-10T05:06:25.045Z,4.13
2019-03-10T05:08:53.685Z,5.10
2019-03-10T05:11:25.759Z,5.70
2019-03-10T05:13:54.647Z,5.80
2019-03-10T05:16:23.370Z,6.33
2019-03-10T05:18:53.668Z,5.20
2019-03-10T05:21:23.158Z,5.07
2019-03-10T05:23:59.312Z,4.97
2019-03-10T05:26:27.899Z,5.37
2019-03-10T05:28:56.478Z,5.33
2019-03-10T05:31:25.086Z,6.03
2019-03-10T05:33:56.714Z,5.53
2019-03-10T05:36:25.323Z,5.63
2019-03-10T05:38:53.976Z,5.53
2019-03-10T05:41:22.533Z,5.00
2019-03-10T05:43:52.370Z,5.10
2019-03-10T05:46:20.990Z,5.60
2019-03-10T05:48:49.647Z,5.60
2019-03-10T05:51:18.249Z,5.63
2019-03-10T05:53:46.814Z,5.40
2019-03-10T05:56:16.633Z,5.57
2019-03-10T05:58:45.286Z,6.87
2019-03-10T06:01:14.003Z,7.10
2019-03-10T06:03:43.824Z,6.60
2019-03-10T06:06:12.494Z,6.27
2019-03-10T06:08:41.257Z,6.83
2019-03-10T06:11:09.894Z,6.00
2019-03-10T06:13:39.553Z,6.43
2019-03-10T06:16:08.256Z,5.50
2019-03-10T06:18:36.884Z,5.77
2019-03-10T06:21:05.640Z,6.33
2019-03-10T06:23:34.200Z,5.80
2019-03-10T06:26:03.002Z,5.97
2019-03-10T06:28:31.675Z,6.00
2019-03-10T06:31:00.770Z,5.77
2019-03-10T06:33:30.920Z,5.90
2019-03-10T06:35:59.788Z,5.70
2019-03-10T06:38:31.180Z,5.87
2019-03-10T06:40:59.835Z,5.57
2019-03-10T06:43:28.433Z,5.60
2019-03-10T06:45:57.138Z,5.77
2019-03-10T06:48:27.440Z,6.70
2019-03-10T06:50:57.634Z,5.63
2019-03-10T06:53:26.199Z,5.20
2019-03-10T06:55:54.883Z,4.70
2019-03-10T06:58:23.570Z,5.30
2019-03-10T07:00:53.777Z,5.70
2019-03-10T07:03:22.348Z,5.50
2019-03-10T07:05:51.086Z,5.20
2019-03-10T07:08:19.790Z,4.33
2019-03-10T07:10:48.493Z,4.67
2019-03-10T07:13:17.092Z,3.77
2019-03-10T07:15:46.086Z,4.40
2019-03-10T07:18:14.698Z,3.37
2019-03-10T07:20:43.456Z,3.77
2019-03-10T07:23:16.490Z,3.63
2019-03-10T07:25:45.295Z,3.80
2019-03-10T07:28:26.232Z,3.97
2019-03-10T07:31:02.335Z,3.73
2019-03-10T07:33:41.906Z,3.50
2019-03-10T07:36:14.973Z,2.67
2019-03-10T07:38:57.596Z,2.20
2019-03-10T07:41:42.679Z,2.13
2019-03-10T07:44:15.783Z,2.30
2019-03-10T07:47:01.484Z,2.27
2019-03-10T07:49:31.862Z,1.50
2019-03-10T07:52:20.540Z,1.47
2019-03-10T07:54:50.714Z,1.57
2019-03-10T07:57:34.318Z,1.70
2019-03-10T08:00:04.649Z,1.17
2019-03-10T08:02:46.957Z,0.90
2019-03-10T08:05:33.715Z,1.40
2019-03-10T08:08:03.984Z,1.50
2019-03-10T08:10:50.609Z,1.40
2019-03-10T08:13:33.025Z,1.10
2019-03-10T08:16:07.370Z,1.63
2019-03-10T08:18:49.281Z,1.30
2019-03-10T08:21:24.135Z,1.60
2019-03-10T08:24:10.697Z,1.47
2019-03-10T08:26:53.032Z,1.70
2019-03-10T08:29:38.415Z,1.17
2019-03-10T08:32:23.704Z,1.20
2019-03-10T08:35:11.225Z,0.80
2019-03-10T08:37:42.487Z,1.00
2019-03-10T08:40:29.404Z,0.90
2019-03-10T08:43:08.510Z,1.00
2019-03-10T08:45:38.731Z,0.77
2019-03-10T08:48:08.943Z,0.77
2019-03-10T08:50:48.295Z,0.70
2019-03-10T08:53:24.761Z,0.73
2019-03-10T08:56:00.861Z,0.63
2019-03-10T08:58:40.205Z,0.70
2019-03-10T09:01:28.911Z,0.80
2019-03-10T09:04:08.097Z,0.83
2019-03-10T09:06:41.188Z,0.77
2019-03-10T09:09:11.673Z,0.70
2019-03-10T09:11:57.267Z,0.87
2019-03-10T09:14:43.831Z,0.70
2019-03-10T09:17:25.846Z,0.73
2019-03-10T09:20:02.193Z,0.83
2019-03-10T09:22:35.186Z,1.20
2019-03-10T09:25:22.379Z,1.40
2019-03-10T09:27:57.039Z,1.00
2019-03-10T09:30:45.510Z,1.00
2019-03-10T09:33:21.270Z,0.97
2019-03-10T09:35:51.479Z,0.90
2019-03-10T09:38:28.369Z,0.77
2019-03-10T09:41:13.737Z,0.70
2019-03-10T09:44:03.883Z,1.00
2019-03-10T09:46:35.055Z,0.80
2019-03-10T09:49:16.904Z,0.83
2019-03-10T09:51:47.249Z,0.90
2019-03-10T09:54:28.547Z,0.80
2019-03-10T09:57:05.174Z,0.73
2019-03-10T09:59:37.961Z,0.80
2019-03-10T10:02:27.215Z,0.70
2019-03-10T10:05:00.531Z,0.80
2019-03-10T10:07:45.820Z,1.10
2019-03-10T10:10:19.345Z,0.87
2019-03-10T10:13:07.636Z,0.60
2019-03-10T10:15:38.015Z,0.70
2019-03-10T10:18:17.239Z,0.80
2019-03-10T10:20:51.828Z,0.50
2019-03-10T10:23:27.264Z,0.70
2019-03-10T10:26:14.344Z,0.70
2019-03-10T10:28:56.968Z,0.53
2019-03-10T10:34:37.425Z,0.70
2019-03-10T10:37:13.198Z,0.70
2019-03-10T10:39:45.354Z,1.10
2019-03-10T10:42:20.511Z,0.63
2019-03-10T10:44:50.907Z,1.17
2019-03-10T10:47:27.267Z,0.70
2019-03-10T10:50:13.608Z,0.73
2019-03-10T10:52:43.208Z,1.10
2019-03-10T10:55:15.056Z,0.80
2019-03-10T10:58:00.803Z,0.83
2019-03-10T11:00:31.168Z,0.80
2019-03-10T11:03:07.427Z,0.77
2019-03-10T11:05:40.976Z,0.90
2019-03-10T11:08:14.064Z,0.90
2019-03-10T11:11:01.978Z,1.33
2019-03-10T11:13:49.187Z,1.27
2019-03-10T11:16:19.567Z,1.10
2019-03-10T11:18:58.094Z,1.10
2019-03-10T11:21:47.627Z,1.20
2019-03-10T11:24:20.979Z,1.40
2019-03-10T11:26:55.119Z,1.70
2019-03-10T11:29:25.396Z,1.40
2019-03-10T11:32:01.726Z,1.40
2019-03-10T11:34:47.249Z,1.50
2019-03-10T11:37:34.047Z,1.83
2019-03-10T11:40:20.918Z,1.83
2019-03-10T11:43:00.025Z,1.90
2019-03-10T11:45:48.849Z,1.97
2019-03-10T11:48:19.095Z,1.90
2019-03-10T11:50:52.132Z,2.00
2019-03-10T11:53:34.433Z,2.40
2019-03-10T11:56:18.213Z,2.23
2019-03-10T11:59:19.361Z,2.50
2019-03-10T12:01:59.223Z,2.13
2019-03-10T12:04:49.685Z,2.73
2019-03-10T12:07:19.997Z,2.83
2019-03-10T12:09:48.619Z,2.97
2019-03-10T12:12:17.219Z,3.10
2019-03-10T12:14:47.826Z,2.60
2019-03-10T12:17:17.668Z,3.13
2019-03-10T12:19:49.755Z,2.73
2019-03-10T12:22:18.650Z,2.30
2019-03-10T12:24:51.707Z,2.93
2019-03-10T12:27:20.287Z,2.53
2019-03-10T12:29:49.581Z,2.20
2019-03-10T12:32:18.271Z,2.30
2019-03-10T12:34:47.571Z,2.50
2019-03-10T12:37:17.715Z,2.70
2019-03-10T12:39:47.752Z,2.00
2019-03-10T12:42:19.205Z,2.40
2019-03-10T12:44:49.629Z,2.40
2019-03-10T12:47:18.632Z,1.90
2019-03-10T12:49:54.708Z,2.07
2019-03-10T12:52:30.729Z,1.80
2019-03-10T12:55:00.575Z,1.63
2019-03-10T12:57:41.592Z,1.47
2019-03-10T13:00:17.154Z,1.70
2019-03-10T13:02:47.815Z,1.87
2019-03-10T13:05:20.622Z,1.77
2019-03-10T13:07:55.320Z,2.07
2019-03-10T13:10:40.882Z,1.97
2019-03-10T13:13:09.456Z,2.00
2019-03-10T13:15:39.833Z,1.93
2019-03-10T13:18:08.815Z,2.20
2019-03-10T13:20:45.916Z,2.17
2019-03-10T13:23:14.820Z,2.10
2019-03-10T13:25:49.551Z,2.47
2019-03-10T13:28:30.039Z,2.37
2019-03-10T13:30:56.780Z,2.50
2019-03-10T13:33:25.675Z,2.10
2019-03-10T13:35:54.403Z,3.13
2019-03-10T13:38:31.093Z,2.20
2019-03-10T13:41:02.250Z,2.67
2019-03-10T13:43:37.517Z,2.20
2019-03-10T13:46:06.427Z,1.93
2019-03-10T13:48:39.302Z,2.20
2019-03-10T13:51:08.909Z,1.83
2019-03-10T13:53:40.603Z,2.23
2019-03-10T13:56:10.250Z,1.30
2019-03-10T13:58:49.186Z,1.30
2019-03-10T14:01:23.731Z,1.67
2019-03-10T14:03:59.996Z,1.37
2019-03-10T14:06:28.939Z,1.17
2019-03-10T14:09:01.613Z,1.30
2019-03-10T14:11:34.598Z,1.63
2019-03-10T14:14:07.206Z,1.27
2019-03-10T14:16:42.110Z,1.80
2019-03-10T14:19:15.665Z,1.43
2019-03-10T14:21:49.009Z,4.43
2019-03-10T14:24:21.902Z,2.40
2019-03-10T14:26:53.414Z,2.40
2019-03-10T14:29:28.976Z,2.10
2019-03-10T14:31:58.882Z,1.77
2019-03-10T14:34:28.795Z,1.90
2019-03-10T14:37:01.632Z,2.73
2019-03-10T14:39:37.448Z,2.17
2019-03-10T14:42:08.180Z,3.47
2019-03-10T14:44:41.575Z,2.37
2019-03-10T14:47:19.395Z,1.30
2019-03-10T14:49:59.016Z,1.27
2019-03-10T14:52:32.971Z,1.57
2019-03-10T14:55:15.758Z,1.37
2019-03-10T14:57:54.159Z,0.90
2019-03-10T15:00:26.403Z,0.90
2019-03-10T15:03:03.716Z,0.80
2019-03-10T15:05:32.420Z,0.80
2019-03-10T15:08:06.872Z,1.50
2019-03-10T15:10:35.610Z,0.90
2019-03-10T15:13:11.139Z,0.90
2019-03-10T15:15:40.960Z,1.10
2019-03-10T15:18:12.695Z,1.03
2019-03-10T15:20:44.411Z,1.30
2019-03-10T15:23:17.747Z,1.43
2019-03-10T15:25:48.494Z,1.33
2019-03-10T15:28:28.858Z,1.30
2019-03-10T15:30:58.544Z,2.37
2019-03-10T15:33:33.224Z,1.37
2019-03-10T15:36:07.824Z,1.37
2019-03-10T15:39:00.524Z,1.03
2019-03-10T15:41:34.898Z,0.87
2019-03-10T15:44:07.138Z,1.10
2019-03-10T15:46:35.889Z,1.27
2019-03-10T15:49:05.195Z,1.50
2019-03-10T15:51:49.710Z,1.07
2019-03-10T15:54:18.774Z,0.87
2019-03-10T15:56:54.762Z,0.90
2019-03-10T15:59:23.340Z,0.77
2019-03-10T16:01:56.569Z,1.80
2019-03-10T16:04:32.115Z,1.30
2019-03-10T16:07:03.795Z,0.60
2019-03-10T16:09:33.186Z,1.00
2019-03-10T16:12:10.840Z,1.07
2019-03-10T16:14:42.284Z,0.93
2019-03-10T16:17:27.220Z,0.90
2019-03-10T16:19:55.862Z,1.10
2019-03-10T16:22:31.875Z,0.80
2019-03-10T16:25:02.226Z,0.67
2019-03-10T16:27:39.870Z,1.10
2019-03-10T16:30:32.392Z,1.30
2019-03-10T16:33:02.787Z,0.80
2019-03-10T16:35:33.897Z,0.90
2019-03-10T16:38:04.587Z,1.00
2019-03-10T16:40:37.899Z,0.90
2019-03-10T16:43:14.912Z,0.83
2019-03-10T16:45:43.514Z,0.63
2019-03-10T16:48:15.179Z,0.90
2019-03-10T16:50:44.013Z,0.90
2019-03-10T16:53:18.875Z,0.70
2019-03-10T16:56:02.413Z,0.77
2019-03-10T16:58:27.854Z,0.70
2019-03-10T17:01:01.033Z,0.80
2019-03-10T17:03:31.661Z,0.90
2019-03-10T17:06:02.810Z,0.57
2019-03-10T17:08:31.672Z,0.87
2019-03-10T17:11:03.070Z,0.63
2019-03-10T17:13:34.759Z,0.60
2019-03-10T17:16:06.643Z,1.03
2019-03-10T17:18:50.931Z,0.50
2019-03-10T17:21:19.652Z,0.40
2019-03-10T17:23:51.009Z,0.40
2019-03-10T17:26:23.563Z,0.70
2019-03-10T17:28:53.662Z,0.70
2019-03-10T17:31:29.980Z,0.60
2019-03-10T17:34:06.746Z,0.40
2019-03-10T17:36:35.790Z,0.30
2019-03-10T17:39:07.976Z,0.50
2019-03-10T17:41:41.700Z,0.50
2019-03-10T17:44:17.867Z,0.53
2019-03-10T17:46:49.518Z,0.50
2019-03-10T17:49:23.633Z,0.60
2019-03-10T17:51:53.920Z,0.50
2019-03-10T17:54:22.555Z,0.50
2019-03-10T17:56:51.501Z,0.30
2019-03-10T17:59:20.754Z,0.37
2019-03-10T18:01:49.852Z,0.50
2019-03-10T18:04:30.289Z,0.70
2019-03-10T18:06:57.060Z,0.50
2019-03-10T18:09:26.126Z,0.30
2019-03-10T18:11:59.228Z,0.70
2019-03-10T18:14:28.230Z,0.20
2019-03-10T18:17:02.940Z,0.20
2019-03-10T18:19:32.153Z,0.40
2019-03-10T18:22:02.379Z,0.47
2019-03-10T18:24:31.010Z,0.20
2019-03-10T18:27:01.910Z,0.20
2019-03-10T18:29:30.826Z,0.27
2019-03-10T18:32:01.946Z,0.20
2019-03-10T18:34:32.859Z,0.20
2019-03-10T18:37:01.138Z,0.30
2019-03-10T18:39:37.020Z,0.30
2019-03-10T18:42:05.821Z,0.30
2019-03-10T18:44:34.606Z,0.30
2019-03-10T18:47:06.466Z,0.37
2019-03-10T18:49:37.419Z,0.40
2019-03-10T18:52:06.214Z,0.30
2019-03-10T18:54:34.856Z,0.50
2019-03-10T18:57:03.619Z,0.50
2019-03-10T18:59:32.259Z,0.40
2019-03-10T19:02:02.838Z,0.40
2019-03-10T19:04:42.245Z,0.60
2019-03-10T19:07:16.888Z,0.57
2019-03-10T19:09:45.626Z,0.40
2019-03-10T19:12:14.207Z,0.60
2019-03-10T19:14:44.387Z,0.40
2019-03-10T19:17:15.228Z,0.40
2019-03-10T19:19:49.027Z,0.50
2019-03-10T19:22:20.127Z,0.50
2019-03-10T19:24:49.255Z,0.40
2019-03-10T19:27:18.253Z,0.30
2019-03-10T19:30:20.159Z,0.40
2019-03-10T19:32:49.146Z,0.60
2019-03-10T19:35:19.934Z,0.40
2019-03-10T19:37:49.769Z,0.50
2019-03-10T19:40:23.512Z,0.63
2019-03-10T19:43:02.474Z,0.70
2019-03-10T19:45:37.232Z,0.50
2019-03-10T19:48:09.858Z,0.50
2019-03-10T19:50:39.231Z,0.60
2019-03-10T19:53:10.136Z,0.60
2019-03-10T19:55:39.744Z,0.53
2019-03-10T19:58:08.802Z,0.50
2019-03-10T20:00:43.628Z,0.47
2019-03-10T20:03:17.761Z,0.50
2019-03-10T20:05:46.526Z,0.70
2019-03-10T20:08:15.329Z,0.70
2019-03-10T20:10:47.491Z,0.70
2019-03-10T20:13:22.633Z,0.80
2019-03-10T20:15:52.649Z,0.90
2019-03-10T20:18:24.798Z,1.00
2019-03-10T20:20:55.882Z,1.07
2019-03-10T20:23:25.294Z,1.00
2019-03-10T20:25:54.455Z,1.00
2019-03-10T20:28:23.215Z,0.90
2019-03-10T20:30:56.171Z,0.80
2019-03-10T20:33:30.779Z,0.93
2019-03-10T20:36:03.893Z,0.90
2019-03-10T20:38:32.587Z,0.90
2019-03-10T20:41:08.461Z,0.80
2019-03-10T20:43:37.079Z,0.70
2019-03-10T20:46:08.843Z,0.80
2019-03-10T20:48:42.624Z,0.60
2019-03-10T20:51:16.639Z,0.57
2019-03-10T20:53:47.129Z,0.80
2019-03-10T20:56:17.216Z,0.70
2019-03-10T20:58:48.886Z,0.63
2019-03-10T21:01:21.371Z,0.57
2019-03-10T21:03:51.891Z,0.50
2019-03-10T21:06:27.517Z,0.50
2019-03-10T21:08:53.286Z,0.40
2019-03-10T21:11:21.886Z,0.60
2019-03-10T21:13:54.679Z,0.60
2019-03-10T21:16:25.475Z,0.60
2019-03-10T21:18:57.945Z,0.40
2019-03-10T21:21:27.195Z,0.57
2019-03-10T21:23:56.224Z,0.60
2019-03-10T21:26:25.329Z,0.70
2019-03-10T21:28:55.461Z,0.60
2019-03-10T21:31:31.465Z,0.57
2019-03-10T21:34:01.657Z,0.60
2019-03-10T21:36:30.298Z,0.40
2019-03-10T21:39:01.673Z,0.30
2019-03-10T21:41:31.402Z,0.40
2019-03-10T21:44:00.228Z,0.40
2019-03-10T21:46:28.892Z,0.90
2019-03-10T21:48:57.455Z,0.80
2019-03-10T21:51:28.154Z,1.00
2019-03-10T21:54:12.689Z,1.17
2019-03-10T21:56:45.608Z,1.63
2019-03-10T21:59:17.542Z,1.67
2019-03-10T22:01:46.596Z,2.17
2019-03-10T22:04:15.444Z,2.60
2019-03-10T22:06:44.305Z,2.07
2019-03-10T22:09:15.592Z,2.50
2019-03-10T22:11:46.553Z,2.50
2019-03-10T22:14:16.664Z,2.70
2019-03-10T22:16:45.232Z,2.90
2019-03-10T22:19:22.158Z,3.00
2019-03-10T22:21:44.448Z,3.20
2019-03-10T22:24:15.933Z,3.37
2019-03-10T22:26:50.690Z,3.57
2019-03-10T22:29:20.921Z,2.67
2019-03-10T22:31:49.637Z,2.80
2019-03-10T22:34:18.926Z,2.80
2019-03-10T22:36:47.560Z,2.40
2019-03-10T22:39:19.864Z,2.57
2019-03-10T22:41:48.904Z,2.10
2019-03-10T22:47:12.171Z,1.60
2019-03-10T22:49:43.250Z,1.70
2019-03-10T22:52:13.021Z,1.80
2019-03-10T22:54:45.793Z,1.80
2019-03-10T22:57:14.419Z,1.50
2019-03-10T22:59:47.354Z,1.67
2019-03-10T23:02:16.098Z,1.37
2019-03-10T23:04:44.721Z,1.60
2019-03-10T23:07:13.295Z,1.60
2019-03-10T23:09:41.942Z,1.70
2019-03-10T23:12:10.726Z,1.57
2019-03-10T23:14:39.422Z,1.20
2019-03-10T23:17:08.164Z,1.50
2019-03-10T23:19:36.868Z,1.23
2019-03-10T23:22:06.072Z,1.30
2019-03-10T23:24:38.258Z,1.20
2019-03-10T23:27:06.728Z,1.50
2019-03-10T23:29:36.987Z,1.27
2019-03-10T23:32:05.976Z,1.27
2019-03-10T23:34:34.761Z,1.40
2019-03-10T23:37:03.469Z,1.17
2019-03-10T23:39:32.157Z,1.33
2019-03-10T23:42:03.629Z,1.40
2019-03-10T23:44:32.348Z,1.30
2019-03-10T23:47:01.263Z,1.30
2019-03-10T23:49:29.821Z,1.40
2019-03-10T23:51:58.454Z,1.50
2019-03-10T23:54:27.183Z,1.50
2019-03-10T23:56:55.758Z,1.47
2019-03-10T23:59:24.387Z,1.63
